sensor_id;sensor_type;location;lat;lon;timestamp;pressure;altitude;pressure_sealevel;temperature;humidity
59104;BME280;51449;51.676;5.812;2022-12-22T00:01:36;100411.16;;;9.98;90.62
59104;BME280;51449;51.676;5.812;2022-12-22T00:04:17;100408.75;;;9.96;90.51
59104;BME280;51449;51.676;5.812;2022-12-22T00:06:57;100392.25;;;9.96;90.88
59104;BME280;51449;51.676;5.812;2022-12-22T00:09:38;100395.47;;;9.98;90.88
59104;BME280;51449;51.676;5.812;2022-12-22T00:12:18;100392.69;;;9.98;90.63
59104;BME280;51449;51.676;5.812;2022-12-22T00:14:59;100382.50;;;9.99;90.58
59104;BME280;51449;51.676;5.812;2022-12-22T00:17:40;100382.97;;;10.01;90.68
59104;BME280;51449;51.676;5.812;2022-12-22T00:20:20;100380.22;;;10.01;90.45
59104;BME280;51449;51.676;5.812;2022-12-22T00:23:00;100379.41;;;10.00;90.71
59104;BME280;51449;51.676;5.812;2022-12-22T00:25:41;100376.78;;;10.04;90.53
59104;BME280;51449;51.676;5.812;2022-12-22T00:28:22;100369.66;;;10.03;90.34
59104;BME280;51449;51.676;5.812;2022-12-22T00:31:02;100359.13;;;10.05;90.08
59104;BME280;51449;51.676;5.812;2022-12-22T00:33:43;100364.97;;;10.03;90.32
59104;BME280;51449;51.676;5.812;2022-12-22T00:36:24;100366.91;;;10.03;90.60
59104;BME280;51449;51.676;5.812;2022-12-22T00:39:11;100359.34;;;10.00;90.43
59104;BME280;51449;51.676;5.812;2022-12-22T00:41:52;100355.34;;;9.97;90.16
59104;BME280;51449;51.676;5.812;2022-12-22T00:44:33;100347.41;;;9.96;90.58
59104;BME280;51449;51.676;5.812;2022-12-22T00:47:23;100355.66;;;9.96;90.42
59104;BME280;51449;51.676;5.812;2022-12-22T00:50:07;100352.13;;;9.95;90.24
59104;BME280;51449;51.676;5.812;2022-12-22T00:52:49;100340.75;;;9.97;90.19
59104;BME280;51449;51.676;5.812;2022-12-22T00:55:30;100342.00;;;9.99;90.29
59104;BME280;51449;51.676;5.812;2022-12-22T00:58:15;100331.13;;;10.03;90.40
59104;BME280;51449;51.676;5.812;2022-12-22T01:00:58;100324.94;;;10.06;90.41
59104;BME280;51449;51.676;5.812;2022-12-22T01:03:39;100322.66;;;10.08;90.16
59104;BME280;51449;51.676;5.812;2022-12-22T01:06:19;100318.75;;;10.09;89.93
59104;BME280;51449;51.676;5.812;2022-12-22T01:09:09;100311.31;;;10.10;89.99
59104;BME280;51449;51.676;5.812;2022-12-22T01:11:50;100305.81;;;10.10;89.94
59104;BME280;51449;51.676;5.812;2022-12-22T01:14:31;100302.69;;;10.11;89.98
59104;BME280;51449;51.676;5.812;2022-12-22T01:17:11;100302.00;;;10.14;90.05
59104;BME280;51449;51.676;5.812;2022-12-22T01:19:52;100302.47;;;10.16;90.17
59104;BME280;51449;51.676;5.812;2022-12-22T01:22:32;100300.16;;;10.18;89.95
59104;BME280;51449;51.676;5.812;2022-12-22T01:25:15;100283.31;;;10.20;90.15
59104;BME280;51449;51.676;5.812;2022-12-22T01:27:57;100275.53;;;10.22;89.98
59104;BME280;51449;51.676;5.812;2022-12-22T01:30:38;100276.31;;;10.22;89.96
59104;BME280;51449;51.676;5.812;2022-12-22T01:33:18;100263.03;;;10.24;89.85
59104;BME280;51449;51.676;5.812;2022-12-22T01:35:58;100272.88;;;10.25;89.84
59104;BME280;51449;51.676;5.812;2022-12-22T01:38:39;100263.03;;;10.24;90.11
59104;BME280;51449;51.676;5.812;2022-12-22T01:41:20;100263.03;;;10.24;89.60
59104;BME280;51449;51.676;5.812;2022-12-22T01:44:00;100263.34;;;10.23;90.00
59104;BME280;51449;51.676;5.812;2022-12-22T01:46:43;100269.66;;;10.23;89.89
59104;BME280;51449;51.676;5.812;2022-12-22T01:49:29;100275.84;;;10.20;89.47
59104;BME280;51449;51.676;5.812;2022-12-22T01:52:18;100263.25;;;10.19;89.70
59104;BME280;51449;51.676;5.812;2022-12-22T01:55:04;100257.38;;;10.21;89.78
59104;BME280;51449;51.676;5.812;2022-12-22T01:57:49;100255.09;;;10.23;89.58
59104;BME280;51449;51.676;5.812;2022-12-22T02:00:29;100250.38;;;10.23;89.64
59104;BME280;51449;51.676;5.812;2022-12-22T02:03:18;100238.66;;;10.26;89.88
59104;BME280;51449;51.676;5.812;2022-12-22T02:06:38;100233.66;;;10.28;89.70
59104;BME280;51449;51.676;5.812;2022-12-22T02:15:29;100230.09;;;10.28;89.96
59104;BME280;51449;51.676;5.812;2022-12-22T02:18:53;100218.75;;;10.30;90.10
59104;BME280;51449;51.676;5.812;2022-12-22T02:22:09;100211.28;;;10.30;89.72
59104;BME280;51449;51.676;5.812;2022-12-22T02:25:10;100207.75;;;10.30;89.74
59104;BME280;51449;51.676;5.812;2022-12-22T02:27:57;100212.09;;;10.31;89.73
59104;BME280;51449;51.676;5.812;2022-12-22T02:30:41;100213.25;;;10.30;90.05
59104;BME280;51449;51.676;5.812;2022-12-22T02:33:22;100216.00;;;10.30;89.94
59104;BME280;51449;51.676;5.812;2022-12-22T02:36:06;100216.00;;;10.30;89.86
59104;BME280;51449;51.676;5.812;2022-12-22T02:39:10;100219.56;;;10.30;89.64
59104;BME280;51449;51.676;5.812;2022-12-22T02:45:29;100190.84;;;10.31;89.83
59104;BME280;51449;51.676;5.812;2022-12-22T02:48:26;100186.19;;;10.32;89.98
59104;BME280;51449;51.676;5.812;2022-12-22T02:51:19;100183.44;;;10.32;89.66
59104;BME280;51449;51.676;5.812;2022-12-22T02:54:03;100183.44;;;10.32;89.73
59104;BME280;51449;51.676;5.812;2022-12-22T02:56:46;100178.72;;;10.32;89.52
59104;BME280;51449;51.676;5.812;2022-12-22T02:59:27;100183.06;;;10.33;89.90
59104;BME280;51449;51.676;5.812;2022-12-22T03:02:08;100182.72;;;10.35;89.93
59104;BME280;51449;51.676;5.812;2022-12-22T03:04:50;100178.81;;;10.36;89.94
59104;BME280;51449;51.676;5.812;2022-12-22T03:07:30;100181.22;;;10.37;89.94
59104;BME280;51449;51.676;5.812;2022-12-22T03:10:10;100182.00;;;10.38;89.92
59104;BME280;51449;51.676;5.812;2022-12-22T03:12:51;100172.25;;;10.40;90.01
59104;BME280;51449;51.676;5.812;2022-12-22T03:15:31;100168.38;;;10.41;89.80
59104;BME280;51449;51.676;5.812;2022-12-22T03:18:12;100161.38;;;10.44;89.82
59104;BME280;51449;51.676;5.812;2022-12-22T03:20:53;100161.00;;;10.45;89.78
59104;BME280;51449;51.676;5.812;2022-12-22T03:23:33;100154.34;;;10.46;89.88
59104;BME280;51449;51.676;5.812;2022-12-22T03:26:14;100156.75;;;10.48;89.61
59104;BME280;51449;51.676;5.812;2022-12-22T03:28:36;100153.97;;;10.48;89.88
59104;BME280;51449;51.676;5.812;2022-12-22T03:31:00;100147.34;;;10.49;89.81
59104;BME280;51449;51.676;5.812;2022-12-22T03:33:26;100159.16;;;10.49;89.57
59104;BME280;51449;51.676;5.812;2022-12-22T03:35:48;100155.22;;;10.50;89.54
59104;BME280;51449;51.676;5.812;2022-12-22T03:38:10;100145.03;;;10.51;89.74
59104;BME280;51449;51.676;5.812;2022-12-22T03:40:32;100142.28;;;10.51;89.65
59104;BME280;51449;51.676;5.812;2022-12-22T03:42:54;100144.69;;;10.53;89.69
59104;BME280;51449;51.676;5.812;2022-12-22T03:45:34;100135.63;;;10.52;89.47
59104;BME280;51449;51.676;5.812;2022-12-22T03:48:14;100132.06;;;10.52;89.33
59104;BME280;51449;51.676;5.812;2022-12-22T03:50:36;100132.88;;;10.52;89.56
59104;BME280;51449;51.676;5.812;2022-12-22T03:52:58;100134.13;;;10.55;89.65
59104;BME280;51449;51.676;5.812;2022-12-22T03:55:20;100126.66;;;10.55;89.60
59104;BME280;51449;51.676;5.812;2022-12-22T03:57:42;100129.41;;;10.55;89.67
59104;BME280;51449;51.676;5.812;2022-12-22T04:00:05;100128.25;;;10.56;89.54
59104;BME280;51449;51.676;5.812;2022-12-22T04:02:32;100125.50;;;10.56;89.49
59104;BME280;51449;51.676;5.812;2022-12-22T04:04:54;100121.94;;;10.56;89.37
59104;BME280;51449;51.676;5.812;2022-12-22T04:07:16;100107.72;;;10.54;89.27
59104;BME280;51449;51.676;5.812;2022-12-22T04:09:38;100110.81;;;10.52;89.00
59104;BME280;51449;51.676;5.812;2022-12-22T04:12:20;100110.81;;;10.52;89.52
59104;BME280;51449;51.676;5.812;2022-12-22T04:15:00;100101.78;;;10.52;89.00
59104;BME280;51449;51.676;5.812;2022-12-22T04:17:22;100096.59;;;10.50;89.04
59104;BME280;51449;51.676;5.812;2022-12-22T04:19:44;100098.56;;;10.49;89.05
59104;BME280;51449;51.676;5.812;2022-12-22T04:22:05;100099.72;;;10.48;89.28
59104;BME280;51449;51.676;5.812;2022-12-22T04:24:27;100095.69;;;10.46;89.34
59104;BME280;51449;51.676;5.812;2022-12-22T04:26:49;100088.25;;;10.46;89.31
59104;BME280;51449;51.676;5.812;2022-12-22T04:29:13;100086.19;;;10.43;89.09
59104;BME280;51449;51.676;5.812;2022-12-22T04:31:34;100082.63;;;10.43;89.05
59104;BME280;51449;51.676;5.812;2022-12-22T04:33:57;100083.00;;;10.41;89.18
59104;BME280;51449;51.676;5.812;2022-12-22T04:36:19;100086.09;;;10.40;88.79
59104;BME280;51449;51.676;5.812;2022-12-22T04:38:41;100082.88;;;10.38;88.88
59104;BME280;51449;51.676;5.812;2022-12-22T04:41:04;100086.81;;;10.37;89.07
59104;BME280;51449;51.676;5.812;2022-12-22T04:43:27;100100.19;;;10.38;88.82
59104;BME280;51449;51.676;5.812;2022-12-22T04:45:53;100099.41;;;10.38;89.11
59104;BME280;51449;51.676;5.812;2022-12-22T04:48:15;100102.16;;;10.38;89.09
59104;BME280;51449;51.676;5.812;2022-12-22T04:50:37;100102.97;;;10.38;89.14
59104;BME280;51449;51.676;5.812;2022-12-22T04:52:59;100110.88;;;10.40;88.89
59104;BME280;51449;51.676;5.812;2022-12-22T04:55:22;100106.88;;;10.37;88.92
59104;BME280;51449;51.676;5.812;2022-12-22T04:57:44;100120.97;;;10.36;88.78
59104;BME280;51449;51.676;5.812;2022-12-22T05:00:07;100122.59;;;10.37;88.95
59104;BME280;51449;51.676;5.812;2022-12-22T05:02:30;100128.44;;;10.35;88.75
59104;BME280;51449;51.676;5.812;2022-12-22T05:04:52;100115.00;;;10.34;88.92
59104;BME280;51449;51.676;5.812;2022-12-22T05:07:14;100122.16;;;10.35;88.99
59104;BME280;51449;51.676;5.812;2022-12-22T05:09:36;100120.19;;;10.35;89.17
59104;BME280;51449;51.676;5.812;2022-12-22T05:11:58;100106.41;;;10.35;89.04
59104;BME280;51449;51.676;5.812;2022-12-22T05:14:20;100111.91;;;10.35;88.88
59104;BME280;51449;51.676;5.812;2022-12-22T05:16:42;100108.84;;;10.37;89.14
59104;BME280;51449;51.676;5.812;2022-12-22T05:19:04;100104.13;;;10.37;89.12
59104;BME280;51449;51.676;5.812;2022-12-22T05:21:26;100108.84;;;10.37;89.04
59104;BME280;51449;51.676;5.812;2022-12-22T05:23:49;100104.47;;;10.36;88.85
59104;BME280;51449;51.676;5.812;2022-12-22T05:26:12;100113.88;;;10.35;88.88
59104;BME280;51449;51.676;5.812;2022-12-22T05:28:35;100116.63;;;10.35;89.03
59104;BME280;51449;51.676;5.812;2022-12-22T05:31:24;100118.94;;;10.33;88.75
59104;BME280;51449;51.676;5.812;2022-12-22T05:33:46;100119.63;;;10.30;88.91
59104;BME280;51449;51.676;5.812;2022-12-22T05:36:09;100118.03;;;10.28;88.94
59104;BME280;51449;51.676;5.812;2022-12-22T05:38:31;100118.69;;;10.25;89.00
59104;BME280;51449;51.676;5.812;2022-12-22T05:40:53;100124.53;;;10.24;88.87
59104;BME280;51449;51.676;5.812;2022-12-22T05:43:24;100129.25;;;10.23;89.15
59104;BME280;51449;51.676;5.812;2022-12-22T05:45:46;100124.53;;;10.24;89.18
59104;BME280;51449;51.676;5.812;2022-12-22T05:48:08;100129.72;;;10.25;89.04
59104;BME280;51449;51.676;5.812;2022-12-22T05:50:30;100129.72;;;10.25;89.19
59104;BME280;51449;51.676;5.812;2022-12-22T05:52:58;100130.50;;;10.26;89.27
59104;BME280;51449;51.676;5.812;2022-12-22T05:55:20;100135.22;;;10.25;89.09
59104;BME280;51449;51.676;5.812;2022-12-22T05:57:42;100142.31;;;10.26;89.43
59104;BME280;51449;51.676;5.812;2022-12-22T06:00:06;100139.25;;;10.28;89.42
59104;BME280;51449;51.676;5.812;2022-12-22T06:02:34;100140.88;;;10.29;89.17
59104;BME280;51449;51.676;5.812;2022-12-22T06:04:56;100141.66;;;10.30;89.42
59104;BME280;51449;51.676;5.812;2022-12-22T06:07:18;100141.75;;;10.33;89.17
59104;BME280;51449;51.676;5.812;2022-12-22T06:09:40;100147.25;;;10.33;89.26
59104;BME280;51449;51.676;5.812;2022-12-22T06:12:02;100154.38;;;10.34;89.12
59104;BME280;51449;51.676;5.812;2022-12-22T06:14:24;100157.47;;;10.33;89.21
59104;BME280;51449;51.676;5.812;2022-12-22T06:16:46;100160.56;;;10.31;89.12
59104;BME280;51449;51.676;5.812;2022-12-22T06:19:08;100166.91;;;10.32;89.38
59104;BME280;51449;51.676;5.812;2022-12-22T06:21:30;100164.16;;;10.32;89.20
59104;BME280;51449;51.676;5.812;2022-12-22T06:23:52;100172.41;;;10.32;89.14
59104;BME280;51449;51.676;5.812;2022-12-22T06:26:15;100174.00;;;10.33;89.30
59104;BME280;51449;51.676;5.812;2022-12-22T06:28:37;100176.28;;;10.31;89.14
59104;BME280;51449;51.676;5.812;2022-12-22T06:30:59;100185.72;;;10.30;89.30
59104;BME280;51449;51.676;5.812;2022-12-22T06:33:21;100197.38;;;10.26;89.54
59104;BME280;51449;51.676;5.812;2022-12-22T06:35:43;100193.03;;;10.25;89.96
59104;BME280;51449;51.676;5.812;2022-12-22T06:38:06;100197.63;;;10.21;90.06
59104;BME280;51449;51.676;5.812;2022-12-22T06:40:28;100199.56;;;10.21;90.31
59104;BME280;51449;51.676;5.812;2022-12-22T06:42:50;100204.28;;;10.20;90.62
59104;BME280;51449;51.676;5.812;2022-12-22T06:45:31;100202.69;;;10.19;90.65
59104;BME280;51449;51.676;5.812;2022-12-22T06:47:53;100212.88;;;10.19;90.81
59104;BME280;51449;51.676;5.812;2022-12-22T06:50:15;100210.59;;;10.21;91.23
59104;BME280;51449;51.676;5.812;2022-12-22T06:52:36;100211.38;;;10.21;91.06
59104;BME280;51449;51.676;5.812;2022-12-22T06:54:58;100218.50;;;10.22;91.35
59104;BME280;51449;51.676;5.812;2022-12-22T06:57:22;100234.22;;;10.22;91.37
59104;BME280;51449;51.676;5.812;2022-12-22T06:59:44;100229.53;;;10.22;91.25
59104;BME280;51449;51.676;5.812;2022-12-22T07:02:08;100237.41;;;10.24;91.39
59104;BME280;51449;51.676;5.812;2022-12-22T07:04:32;100237.78;;;10.22;91.33
59104;BME280;51449;51.676;5.812;2022-12-22T07:06:54;100251.19;;;10.24;91.57
59104;BME280;51449;51.676;5.812;2022-12-22T07:09:15;100247.28;;;10.25;91.68
59104;BME280;51449;51.676;5.812;2022-12-22T07:11:38;100253.94;;;10.24;91.62
59104;BME280;51449;51.676;5.812;2022-12-22T07:13:59;100252.00;;;10.24;91.79
59104;BME280;51449;51.676;5.812;2022-12-22T07:16:21;100260.69;;;10.26;91.81
59104;BME280;51449;51.676;5.812;2022-12-22T07:18:44;100260.69;;;10.26;91.70
59104;BME280;51449;51.676;5.812;2022-12-22T07:21:08;100273.34;;;10.27;91.68
59104;BME280;51449;51.676;5.812;2022-12-22T07:23:32;100267.81;;;10.27;91.82
59104;BME280;51449;51.676;5.812;2022-12-22T07:25:55;100281.28;;;10.29;91.74
59104;BME280;51449;51.676;5.812;2022-12-22T07:28:18;100273.03;;;10.29;91.42
59104;BME280;51449;51.676;5.812;2022-12-22T07:30:41;100275.41;;;10.31;91.59
59104;BME280;51449;51.676;5.812;2022-12-22T07:33:03;100283.22;;;10.28;91.24
59104;BME280;51449;51.676;5.812;2022-12-22T07:35:26;100276.09;;;10.27;91.43
59104;BME280;51449;51.676;5.812;2022-12-22T07:37:47;100283.22;;;10.28;91.53
59104;BME280;51449;51.676;5.812;2022-12-22T07:40:10;100294.22;;;10.28;91.07
59104;BME280;51449;51.676;5.812;2022-12-22T07:42:32;100302.81;;;10.27;91.07
59104;BME280;51449;51.676;5.812;2022-12-22T07:45:06;100299.25;;;10.26;90.76
59104;BME280;51449;51.676;5.812;2022-12-22T07:47:28;100298.13;;;10.27;90.82
59104;BME280;51449;51.676;5.812;2022-12-22T07:49:56;100294.91;;;10.25;90.91
59104;BME280;51449;51.676;5.812;2022-12-22T07:52:36;100294.09;;;10.25;90.90
59104;BME280;51449;51.676;5.812;2022-12-22T07:54:58;100298.81;;;10.24;90.66
59104;BME280;51449;51.676;5.812;2022-12-22T07:57:20;100301.09;;;10.22;90.62
59104;BME280;51449;51.676;5.812;2022-12-22T07:59:42;100311.31;;;10.22;90.21
59104;BME280;51449;51.676;5.812;2022-12-22T08:02:04;100315.19;;;10.21;90.18
59104;BME280;51449;51.676;5.812;2022-12-22T08:04:27;100332.06;;;10.19;90.42
59104;BME280;51449;51.676;5.812;2022-12-22T08:06:49;100337.44;;;10.16;90.25
59104;BME280;51449;51.676;5.812;2022-12-22T08:09:16;100338.59;;;10.15;90.30
59104;BME280;51449;51.676;5.812;2022-12-22T08:11:42;100343.97;;;10.11;90.27
59104;BME280;51449;51.676;5.812;2022-12-22T08:14:04;100364.88;;;10.12;90.20
59104;BME280;51449;51.676;5.812;2022-12-22T08:16:26;100357.75;;;10.11;90.06
59104;BME280;51449;51.676;5.812;2022-12-22T08:18:48;100369.44;;;10.08;90.02
59104;BME280;51449;51.676;5.812;2022-12-22T08:21:10;100383.91;;;10.05;90.03
59104;BME280;51449;51.676;5.812;2022-12-22T08:23:33;100395.69;;;10.05;89.88
59104;BME280;51449;51.676;5.812;2022-12-22T08:26:03;100392.38;;;10.00;89.90
59104;BME280;51449;51.676;5.812;2022-12-22T08:28:31;100396.16;;;9.95;90.26
59104;BME280;51449;51.676;5.812;2022-12-22T08:30:58;100395.00;;;9.96;90.09
59104;BME280;51449;51.676;5.812;2022-12-22T08:33:22;100405.53;;;9.94;90.25
59104;BME280;51449;51.676;5.812;2022-12-22T08:35:44;100408.28;;;9.94;90.15
59104;BME280;51449;51.676;5.812;2022-12-22T08:38:06;100403.94;;;9.93;90.54
59104;BME280;51449;51.676;5.812;2022-12-22T08:40:30;100404.72;;;9.94;90.59
59104;BME280;51449;51.676;5.812;2022-12-22T08:42:59;100408.63;;;9.93;90.08
59104;BME280;51449;51.676;5.812;2022-12-22T08:45:25;100418.50;;;9.94;90.16
59104;BME280;51449;51.676;5.812;2022-12-22T08:47:47;100422.84;;;9.95;90.03
59104;BME280;51449;51.676;5.812;2022-12-22T08:50:09;100421.25;;;9.94;90.08
59104;BME280;51449;51.676;5.812;2022-12-22T08:52:31;100429.16;;;9.95;89.63
59104;BME280;51449;51.676;5.812;2022-12-22T08:54:53;100437.06;;;9.97;89.53
59104;BME280;51449;51.676;5.812;2022-12-22T08:57:15;100449.69;;;9.98;88.81
59104;BME280;51449;51.676;5.812;2022-12-22T08:59:36;100449.69;;;9.98;88.95
59104;BME280;51449;51.676;5.812;2022-12-22T09:01:58;100457.59;;;9.99;89.05
59104;BME280;51449;51.676;5.812;2022-12-22T09:04:25;100455.69;;;10.00;88.75
59104;BME280;51449;51.676;5.812;2022-12-22T09:06:50;100467.13;;;10.02;88.71
59104;BME280;51449;51.676;5.812;2022-12-22T09:09:14;100461.97;;;10.00;88.77
59104;BME280;51449;51.676;5.812;2022-12-22T09:11:37;100474.47;;;9.98;88.68
59104;BME280;51449;51.676;5.812;2022-12-22T09:14:01;100474.78;;;9.96;88.69
59104;BME280;51449;51.676;5.812;2022-12-22T09:16:26;100482.25;;;9.96;88.31
59104;BME280;51449;51.676;5.812;2022-12-22T09:18:49;100482.09;;;9.92;88.08
59104;BME280;51449;51.676;5.812;2022-12-22T09:21:11;100482.00;;;9.89;87.88
59104;BME280;51449;51.676;5.812;2022-12-22T09:23:33;100493.31;;;9.87;87.65
59104;BME280;51449;51.676;5.812;2022-12-22T09:25:55;100508.09;;;9.82;87.70
59104;BME280;51449;51.676;5.812;2022-12-22T09:28:17;100513.81;;;9.77;87.57
59104;BME280;51449;51.676;5.812;2022-12-22T09:30:39;100505.44;;;9.74;87.45
59104;BME280;51449;51.676;5.812;2022-12-22T09:33:01;100498.66;;;9.71;87.28
59104;BME280;51449;51.676;5.812;2022-12-22T09:35:23;100511.47;;;9.67;87.53
59104;BME280;51449;51.676;5.812;2022-12-22T09:37:45;100505.47;;;9.65;87.69
59104;BME280;51449;51.676;5.812;2022-12-22T09:40:07;100510.50;;;9.63;87.44
59104;BME280;51449;51.676;5.812;2022-12-22T09:42:33;100516.00;;;9.63;87.31
59104;BME280;51449;51.676;5.812;2022-12-22T09:44:56;100520.38;;;9.64;87.15
59104;BME280;51449;51.676;5.812;2022-12-22T09:47:30;100525.53;;;9.65;87.45
59104;BME280;51449;51.676;5.812;2022-12-22T09:49:58;100529.91;;;9.67;87.32
59104;BME280;51449;51.676;5.812;2022-12-22T09:54:55;100532.13;;;9.73;87.83
59104;BME280;51449;51.676;5.812;2022-12-22T09:57:17;100533.41;;;9.76;87.79
59104;BME280;51449;51.676;5.812;2022-12-22T09:59:39;100532.41;;;9.80;88.06
59104;BME280;51449;51.676;5.812;2022-12-22T10:02:27;100528.63;;;9.85;87.73
59104;BME280;51449;51.676;5.812;2022-12-22T10:07:49;100539.91;;;9.92;87.72
59104;BME280;51449;51.676;5.812;2022-12-22T10:10:21;100541.06;;;9.91;87.58
59104;BME280;51449;51.676;5.812;2022-12-22T10:12:48;100532.81;;;9.91;87.68
59104;BME280;51449;51.676;5.812;2022-12-22T10:15:11;100535.88;;;9.90;87.13
59104;BME280;51449;51.676;5.812;2022-12-22T10:17:42;100539.09;;;9.92;87.20
59104;BME280;51449;51.676;5.812;2022-12-22T10:22:34;100541.00;;;10.00;87.13
59104;BME280;51449;51.676;5.812;2022-12-22T10:25:05;100530.91;;;10.04;87.17
59104;BME280;51449;51.676;5.812;2022-12-22T10:27:33;100535.72;;;10.07;87.14
59104;BME280;51449;51.676;5.812;2022-12-22T10:30:19;100540.56;;;10.10;86.71
59104;BME280;51449;51.676;5.812;2022-12-22T10:33:12;100559.63;;;10.15;86.65
59104;BME280;51449;51.676;5.812;2022-12-22T10:35:50;100548.28;;;10.17;86.86
59104;BME280;51449;51.676;5.812;2022-12-22T10:38:20;100554.41;;;10.22;86.55
59104;BME280;51449;51.676;5.812;2022-12-22T10:40:56;100562.44;;;10.27;86.61
59104;BME280;51449;51.676;5.812;2022-12-22T10:43:47;100562.72;;;10.35;86.15
59104;BME280;51449;51.676;5.812;2022-12-22T10:46:12;100559.88;;;10.43;86.00
59104;BME280;51449;51.676;5.812;2022-12-22T10:48:37;100554.72;;;10.42;85.55
59104;BME280;51449;51.676;5.812;2022-12-22T10:51:01;100560.91;;;10.39;85.51
59104;BME280;51449;51.676;5.812;2022-12-22T10:53:38;100556.69;;;10.41;85.25
59104;BME280;51449;51.676;5.812;2022-12-22T10:56:05;100560.56;;;10.40;85.38
59104;BME280;51449;51.676;5.812;2022-12-22T10:58:29;100564.78;;;10.38;85.15
59104;BME280;51449;51.676;5.812;2022-12-22T11:01:02;100571.31;;;10.33;84.93
59104;BME280;51449;51.676;5.812;2022-12-22T11:03:30;100567.75;;;10.33;84.98
59104;BME280;51449;51.676;5.812;2022-12-22T11:05:53;100569.56;;;10.28;84.46
59104;BME280;51449;51.676;5.812;2022-12-22T11:08:19;100570.03;;;10.31;83.90
59104;BME280;51449;51.676;5.812;2022-12-22T11:11:04;100573.97;;;10.30;84.06
59104;BME280;51449;51.676;5.812;2022-12-22T11:14:27;100574.44;;;10.32;83.60
59104;BME280;51449;51.676;5.812;2022-12-22T11:17:02;100579.72;;;10.37;84.17
59104;BME280;51449;51.676;5.812;2022-12-22T11:23:22;100586.28;;;10.44;83.16
59104;BME280;51449;51.676;5.812;2022-12-22T11:26:05;100586.16;;;10.41;82.90
59104;BME280;51449;51.676;5.812;2022-12-22T11:29:13;100602.88;;;10.36;82.58
59104;BME280;51449;51.676;5.812;2022-12-22T11:32:15;100601.75;;;10.37;82.60
59104;BME280;51449;51.676;5.812;2022-12-22T11:37:41;100612.09;;;10.40;82.73
59104;BME280;51449;51.676;5.812;2022-12-22T11:40:25;100600.81;;;10.33;82.17
59104;BME280;51449;51.676;5.812;2022-12-22T11:57:34;100613.63;;;10.49;81.25
59104;BME280;51449;51.676;5.812;2022-12-22T12:00:13;100608.22;;;10.53;81.02
59104;BME280;51449;51.676;5.812;2022-12-22T12:05:59;100612.34;;;10.47;80.34
59104;BME280;51449;51.676;5.812;2022-12-22T12:09:05;100617.28;;;10.41;79.83
59104;BME280;51449;51.676;5.812;2022-12-22T12:31:31;100592.56;;;10.33;78.98
59104;BME280;51449;51.676;5.812;2022-12-22T12:33:59;100590.94;;;10.32;78.73
59104;BME280;51449;51.676;5.812;2022-12-22T12:39:14;100597.59;;;10.31;79.36
59104;BME280;51449;51.676;5.812;2022-12-22T12:41:45;100594.69;;;10.27;79.39
59104;BME280;51449;51.676;5.812;2022-12-22T12:44:14;100583.53;;;10.23;78.98
59104;BME280;51449;51.676;5.812;2022-12-22T12:51:56;100585.09;;;10.12;79.39
59104;BME280;51449;51.676;5.812;2022-12-22T12:57:00;100577.44;;;10.18;79.79
59104;BME280;51449;51.676;5.812;2022-12-22T13:02:02;100572.66;;;10.27;80.23
59104;BME280;51449;51.676;5.812;2022-12-22T13:10:37;100573.16;;;10.29;80.02
59104;BME280;51449;51.676;5.812;2022-12-22T13:13:04;100571.69;;;10.32;80.08
59104;BME280;51449;51.676;5.812;2022-12-22T13:15:32;100571.69;;;10.32;80.14
59104;BME280;51449;51.676;5.812;2022-12-22T13:17:58;100581.53;;;10.33;79.94
59104;BME280;51449;51.676;5.812;2022-12-22T13:20:41;100583.81;;;10.31;79.64
59104;BME280;51449;51.676;5.812;2022-12-22T13:23:13;100589.50;;;10.25;79.46
59104;BME280;51449;51.676;5.812;2022-12-22T13:25:44;100588.13;;;10.19;78.61
59104;BME280;51449;51.676;5.812;2022-12-22T13:28:16;100593.47;;;10.16;78.65
59104;BME280;51449;51.676;5.812;2022-12-22T13:30:47;100583.94;;;10.13;78.58
59104;BME280;51449;51.676;5.812;2022-12-22T13:33:15;100590.25;;;10.14;78.80
59104;BME280;51449;51.676;5.812;2022-12-22T13:35:40;100590.59;;;10.12;78.86
59104;BME280;51449;51.676;5.812;2022-12-22T13:38:29;100590.41;;;10.17;78.70
59104;BME280;51449;51.676;5.812;2022-12-22T13:41:02;100588.91;;;10.20;79.13
59104;BME280;51449;51.676;5.812;2022-12-22T13:43:34;100582.03;;;10.26;79.41
59104;BME280;51449;51.676;5.812;2022-12-22T13:45:57;100576.72;;;10.30;79.49
59104;BME280;51449;51.676;5.812;2022-12-22T13:48:29;100580.38;;;10.34;79.53
59104;BME280;51449;51.676;5.812;2022-12-22T13:51:27;100574.22;;;10.37;79.51
59104;BME280;51449;51.676;5.812;2022-12-22T13:53:55;100577.63;;;10.34;79.31
59104;BME280;51449;51.676;5.812;2022-12-22T13:56:41;100576.03;;;10.33;79.44
59104;BME280;51449;51.676;5.812;2022-12-22T14:01:50;100574.44;;;10.32;79.34
59104;BME280;51449;51.676;5.812;2022-12-22T14:04:17;100565.47;;;10.35;79.64
59104;BME280;51449;51.676;5.812;2022-12-22T14:06:39;100562.50;;;10.40;79.50
59104;BME280;51449;51.676;5.812;2022-12-22T14:09:31;100559.06;;;10.43;79.65
59104;BME280;51449;51.676;5.812;2022-12-22T14:12:04;100550.00;;;10.42;79.87
59104;BME280;51449;51.676;5.812;2022-12-22T14:14:43;100567.13;;;10.48;79.72
59104;BME280;51449;51.676;5.812;2022-12-22T14:19:52;100558.06;;;10.47;79.83
59104;BME280;51449;51.676;5.812;2022-12-22T14:22:22;100555.31;;;10.47;79.69
59104;BME280;51449;51.676;5.812;2022-12-22T14:24:54;100546.72;;;10.49;79.78
59104;BME280;51449;51.676;5.812;2022-12-22T14:30:04;100552.22;;;10.49;79.78
59104;BME280;51449;51.676;5.812;2022-12-22T14:32:41;100551.44;;;10.48;79.86
59104;BME280;51449;51.676;5.812;2022-12-22T14:37:42;100550.59;;;10.48;80.15
59104;BME280;51449;51.676;5.812;2022-12-22T14:40:05;100539.94;;;10.46;79.98
59104;BME280;51449;51.676;5.812;2022-12-22T14:42:34;100533.28;;;10.47;80.25
59104;BME280;51449;51.676;5.812;2022-12-22T14:44:56;100534.06;;;10.48;80.30